LIRQ Airport Information

Runway Information
Runway 05 Length 5425 ft width 98 ft
Elevation 123 ft Threshold 492 ft Heading 48
Runway 23 Length 5425 ft Width 98 ft
Elevation 132 ft Threshold 2287 ft Heading 228
Airport Frequencies
Type APP Name APP Frequency 126.075 MHZ
Type ATIS Name ATIS Frequency 129.35 MHZ
Type TWR Name FIRENZE TW Frequency 118.3 MHZ
Airport Navaids
Type VOR-DME Name Peretola Frequency 112500 KHZ
Airport Weather Information & NOTAM
ADDS - METARS form results

(0758 UTC 20 May 2022)
Data provider http://aviationweather.gov/metar/data/
 
METAR text: LIRQ 200750Z VRB02KT CAVOK 22/13 Q1028
Conditions at: LIRQ (FIRENZE/PERETOLA, IT) observed 0750 UTC 20 May 2022
Temperature: 22.0°C (72°F)
Dewpoint: 13.0°C (55°F) [RH = 57%]
Pressure (altimeter): 30.35 inches Hg (1028.0 mb)
Winds: variable direction winds at 2 MPH (2 knots; 1.0 m/s)
Visibility: 6 or more miles (10+ km)
Ceiling: ceiling and visibility are OK
Clouds: unknown
Weather: no significant weather observed at this time

METAR text: LIRQ 200720Z VRB02KT CAVOK 21/13 Q1028
Conditions at: LIRQ (FIRENZE/PERETOLA, IT) observed 0720 UTC 20 May 2022
Temperature: 21.0°C (70°F)
Dewpoint: 13.0°C (55°F) [RH = 60%]
Pressure (altimeter): 30.35 inches Hg (1028.0 mb)
Winds: variable direction winds at 2 MPH (2 knots; 1.0 m/s)
Visibility: 6 or more miles (10+ km)
Ceiling: ceiling and visibility are OK
Clouds: unknown
Weather: no significant weather observed at this time

Forecast for: LIRQ (FIRENZE/PERETOLA, IT)
Text: TAF LIRQ 200500Z 2006/2106 VRB05KT CAVOK
Forecast period: 0600 to 1000 UTC 20 May 2022
Forecast type: FROM: standard forecast or significant change
Winds: variable direction winds at 6 MPH (5 knots; 2.6 m/s)
Visibility: 6 or more miles (10+ km)
Ceiling: unknown
Clouds: missing
Weather: NSW  (no significant weather)
Text: BECMG 2010/2012 25010KT
Forecast period: 1000 to 1700 UTC 20 May 2022
Forecast type: BECOMING: Conditions expected to become as follows by 1200 UTC 20 May 2022
Winds: from the WSW (250 degrees) at 12 MPH (10 knots; 5.1 m/s)
Visibility: 6 or more miles (10+ km)
Ceiling: unknown
Clouds: missing
Weather: NSW  (no significant weather)
Text: BECMG 2017/2019 VRB05KT
Forecast period: 1700 UTC 20 May 2022 to 0600 UTC 21 May 2022
Forecast type: BECOMING: Conditions expected to become as follows by 1900 UTC 20 May 2022
Winds: variable direction winds at 6 MPH (5 knots; 2.6 m/s)
Visibility: 6 or more miles (10+ km)
Ceiling: unknown
Clouds: missing
Weather: NSW  (no significant weather)